createdAt,value
2018-09-17T00:01:58.778Z,100739.00
2018-09-17T00:04:28.280Z,100740.00
2018-09-17T00:06:57.702Z,100742.00
2018-09-17T00:09:27.286Z,100743.00
2018-09-17T00:11:56.787Z,100738.00
2018-09-17T00:14:26.780Z,100736.00
2018-09-17T00:16:57.404Z,100734.00
2018-09-17T00:19:28.106Z,100735.00
2018-09-17T00:21:57.883Z,100738.00
2018-09-17T00:24:27.811Z,100727.00
2018-09-17T00:26:58.338Z,100731.00
2018-09-17T00:29:30.978Z,100725.00
2018-09-17T00:32:01.100Z,100729.00
2018-09-17T00:34:31.707Z,100730.00
2018-09-17T00:37:07.650Z,100733.00
2018-09-17T00:39:37.291Z,100734.00
2018-09-17T00:42:07.739Z,100732.00
2018-09-17T00:44:38.502Z,100735.00
2018-09-17T00:47:08.424Z,100741.00
2018-09-17T00:49:40.054Z,100741.00
2018-09-17T00:52:11.020Z,100742.00
2018-09-17T00:54:41.466Z,100741.00
2018-09-17T00:57:13.805Z,100740.00
2018-09-17T00:59:48.351Z,100739.00
2018-09-17T01:02:24.336Z,100740.00
2018-09-17T01:04:53.787Z,100738.00
2018-09-17T01:07:23.446Z,100741.00
2018-09-17T01:09:53.835Z,100741.00
2018-09-17T01:12:23.685Z,100742.00
2018-09-17T01:14:54.553Z,100745.00
2018-09-17T01:17:27.809Z,100742.00
2018-09-17T01:19:57.351Z,100751.00
2018-09-17T01:22:27.692Z,100752.00
2018-09-17T01:24:59.841Z,100755.00
2018-09-17T01:27:32.721Z,100757.00
2018-09-17T01:30:03.387Z,100756.00
2018-09-17T01:32:34.220Z,100750.00
2018-09-17T01:35:05.762Z,100747.00
2018-09-17T01:37:35.561Z,100750.00
2018-09-17T01:40:09.685Z,100749.00
2018-09-17T01:42:40.989Z,100749.00
2018-09-17T01:45:11.755Z,100754.00
2018-09-17T01:47:41.842Z,100753.00
2018-09-17T01:50:13.054Z,100745.00
2018-09-17T01:52:44.125Z,100751.00
2018-09-17T01:55:14.685Z,100746.00
2018-09-17T01:57:46.927Z,100746.00
2018-09-17T02:00:17.929Z,100741.00
2018-09-17T02:02:48.298Z,100741.00
2018-09-17T02:05:19.409Z,100743.00
2018-09-17T02:07:53.899Z,100748.00
2018-09-17T02:10:24.627Z,100749.00
2018-09-17T02:12:55.022Z,100748.00
2018-09-17T02:15:26.161Z,100751.00
2018-09-17T02:17:55.936Z,100746.00
2018-09-17T02:20:25.464Z,100746.00
2018-09-17T02:22:55.082Z,100744.00
2018-09-17T02:25:25.164Z,100741.00
2018-09-17T02:27:55.045Z,100744.00
2018-09-17T02:30:25.494Z,100746.00
2018-09-17T02:32:55.077Z,100751.00
2018-09-17T02:35:26.020Z,100753.00
2018-09-17T02:37:56.448Z,100750.00
2018-09-17T02:40:26.050Z,100743.00
2018-09-17T02:42:56.021Z,100733.00
2018-09-17T02:45:25.731Z,100730.00
2018-09-17T02:47:55.175Z,100735.00
2018-09-17T02:50:24.693Z,100735.00
2018-09-17T02:52:55.040Z,100744.00
2018-09-17T02:55:25.131Z,100749.00
2018-09-17T02:57:54.689Z,100749.00
2018-09-17T03:00:24.934Z,100750.00
2018-09-17T03:02:55.152Z,100750.00
2018-09-17T03:05:24.797Z,100756.00
2018-09-17T03:07:57.366Z,100750.00
2018-09-17T03:10:27.188Z,100754.00
2018-09-17T03:12:58.596Z,100755.00
2018-09-17T03:15:53.528Z,100756.00
2018-09-17T03:18:39.926Z,100752.00
2018-09-17T03:21:10.254Z,100752.00
2018-09-17T03:23:39.848Z,100762.00
2018-09-17T03:26:09.366Z,100764.00
2018-09-17T03:28:39.041Z,100772.00
2018-09-17T03:31:08.991Z,100771.00
2018-09-17T03:33:39.682Z,100777.00
2018-09-17T03:36:10.661Z,100778.00
2018-09-17T03:38:50.708Z,100775.00
2018-09-17T03:41:20.793Z,100773.00
2018-09-17T03:43:51.512Z,100773.00
2018-09-17T03:46:21.043Z,100771.00
2018-09-17T03:48:50.564Z,100770.00
2018-09-17T03:51:21.121Z,100756.00
2018-09-17T03:53:51.628Z,100752.00
2018-09-17T03:56:22.441Z,100752.00
2018-09-17T03:58:52.253Z,100752.00
2018-09-17T04:01:22.220Z,100753.00
2018-09-17T04:03:58.858Z,100752.00
2018-09-17T04:06:29.361Z,100749.00
2018-09-17T04:08:58.788Z,100748.00
2018-09-17T04:11:28.149Z,100745.00
2018-09-17T04:13:57.917Z,100748.00
2018-09-17T04:16:27.976Z,100745.00
2018-09-17T04:18:59.039Z,100746.00
2018-09-17T04:21:28.545Z,100747.00
2018-09-17T04:23:58.071Z,100745.00
2018-09-17T04:26:27.588Z,100742.00
2018-09-17T04:28:57.083Z,100740.00
2018-09-17T04:31:26.835Z,100743.00
2018-09-17T04:33:56.466Z,100749.00
2018-09-17T04:36:26.423Z,100743.00
2018-09-17T04:38:56.294Z,100746.00
2018-09-17T04:41:25.771Z,100748.00
2018-09-17T04:43:55.105Z,100750.00
2018-09-17T04:46:25.269Z,100757.00
2018-09-17T04:48:54.679Z,100753.00
2018-09-17T04:51:24.224Z,100752.00
2018-09-17T04:53:54.705Z,100761.00
2018-09-17T04:56:24.269Z,100763.00
2018-09-17T04:58:55.141Z,100766.00
2018-09-17T05:01:28.426Z,100768.00
2018-09-17T05:03:58.489Z,100770.00
2018-09-17T05:06:29.232Z,100767.00
2018-09-17T05:09:00.319Z,100774.00
2018-09-17T05:11:30.370Z,100785.00
2018-09-17T05:14:00.066Z,100788.00
2018-09-17T05:16:29.624Z,100788.00
2018-09-17T05:18:59.482Z,100785.00
2018-09-17T05:21:29.245Z,100783.00
2018-09-17T05:23:58.916Z,100785.00
2018-09-17T05:26:28.663Z,100780.00
2018-09-17T05:28:58.620Z,100782.00
2018-09-17T05:31:29.869Z,100782.00
2018-09-17T05:34:01.105Z,100776.00
2018-09-17T05:36:31.905Z,100782.00
2018-09-17T05:39:04.828Z,100778.00
2018-09-17T05:41:34.954Z,100777.00
2018-09-17T05:44:06.907Z,100784.00
2018-09-17T05:46:36.759Z,100777.00
2018-09-17T05:49:10.316Z,100772.00
2018-09-17T05:51:40.467Z,100782.00
2018-09-17T05:54:10.579Z,100787.00
2018-09-17T05:56:40.606Z,100793.00
2018-09-17T05:59:10.935Z,100798.00
2018-09-17T06:01:41.666Z,100799.00
2018-09-17T06:04:11.396Z,100799.00
2018-09-17T06:06:41.478Z,100801.00
2018-09-17T06:09:13.616Z,100805.00
2018-09-17T06:11:43.162Z,100803.00
2018-09-17T06:14:12.736Z,100792.00
2018-09-17T06:16:42.400Z,100785.00
2018-09-17T06:19:12.926Z,100783.00
2018-09-17T06:21:42.780Z,100783.00
2018-09-17T06:24:15.362Z,100784.00
2018-09-17T06:26:45.693Z,100780.00
2018-09-17T06:29:16.835Z,100785.00
2018-09-17T06:31:47.482Z,100784.00
2018-09-17T06:34:18.945Z,100784.00
2018-09-17T06:36:51.354Z,100782.00
2018-09-17T06:39:22.599Z,100783.00
2018-09-17T06:41:53.576Z,100785.00
2018-09-17T06:44:23.485Z,100790.00
2018-09-17T06:46:56.079Z,100790.00
2018-09-17T06:49:26.904Z,100796.00
2018-09-17T06:51:59.613Z,100790.00
2018-09-17T06:54:30.619Z,100794.00
2018-09-17T06:57:04.378Z,100798.00
2018-09-17T06:59:38.748Z,100796.00
2018-09-17T07:02:10.605Z,100801.00
2018-09-17T07:04:40.924Z,100797.00
2018-09-17T07:07:10.849Z,100795.00
2018-09-17T07:09:40.384Z,100795.00
2018-09-17T07:12:11.315Z,100791.00
2018-09-17T07:14:48.185Z,100781.00
2018-09-17T07:17:18.379Z,100778.00
2018-09-17T07:19:48.810Z,100767.00
2018-09-17T07:22:19.604Z,100766.00
2018-09-17T07:24:49.958Z,100769.00
2018-09-17T07:27:19.927Z,100770.00
2018-09-17T07:29:50.714Z,100764.00
2018-09-17T07:32:23.202Z,100765.00
2018-09-17T07:34:54.035Z,100764.00
2018-09-17T07:37:24.053Z,100757.00
2018-09-17T07:39:56.625Z,100761.00
2018-09-17T07:42:28.025Z,100766.00
2018-09-17T07:44:59.963Z,100769.00
2018-09-17T07:47:31.947Z,100768.00
2018-09-17T07:50:05.395Z,100763.00
2018-09-17T07:52:36.823Z,100764.00
2018-09-17T07:55:07.476Z,100762.00
2018-09-17T07:57:37.951Z,100760.00
2018-09-17T08:00:24.870Z,100764.00
2018-09-17T08:02:54.733Z,100759.00
2018-09-17T08:05:30.324Z,100756.00
2018-09-17T08:08:06.245Z,100756.00
2018-09-17T08:10:37.483Z,100752.00
2018-09-17T08:13:08.842Z,100752.00
2018-09-17T08:15:45.007Z,100742.00
2018-09-17T08:18:16.153Z,100740.00
2018-09-17T08:20:46.820Z,100735.00
2018-09-17T08:23:18.002Z,100737.00
2018-09-17T08:25:58.833Z,100735.00
2018-09-17T08:28:32.282Z,100732.00
2018-09-17T08:31:02.497Z,100737.00
2018-09-17T08:33:33.045Z,100740.00
2018-09-17T08:36:02.860Z,100743.00
2018-09-17T08:38:33.597Z,100741.00
2018-09-17T08:41:07.229Z,100740.00
2018-09-17T08:43:38.615Z,100745.00
2018-09-17T08:46:09.421Z,100745.00
2018-09-17T08:48:42.787Z,100743.00
2018-09-17T08:51:12.936Z,100744.00
2018-09-17T08:53:42.576Z,100747.00
2018-09-17T08:56:18.763Z,100745.00
2018-09-17T08:58:55.453Z,100744.00
2018-09-17T09:03:37.191Z,100739.00
2018-09-17T09:06:13.503Z,100740.00
2018-09-17T09:08:44.225Z,100739.00
2018-09-17T09:11:16.447Z,100730.00
2018-09-17T09:13:52.861Z,100734.00
2018-09-17T09:16:23.740Z,100731.00
2018-09-17T09:18:54.448Z,100740.00
2018-09-17T09:21:24.518Z,100742.00
2018-09-17T09:23:55.732Z,100743.00
2018-09-17T09:26:25.932Z,100737.00
2018-09-17T09:28:56.710Z,100734.00
2018-09-17T09:31:27.684Z,100732.00
2018-09-17T09:33:57.557Z,100730.00
2018-09-17T09:36:29.056Z,100726.00
2018-09-17T09:38:59.892Z,100717.00
2018-09-17T09:41:33.587Z,100722.00
2018-09-17T09:44:06.419Z,100714.00
2018-09-17T09:46:41.632Z,100712.00
2018-09-17T09:49:19.266Z,100711.00
2018-09-17T09:51:52.652Z,100712.00
2018-09-17T09:54:25.383Z,100707.00
2018-09-17T09:57:00.821Z,100715.00
2018-09-17T10:05:27.815Z,100725.00
2018-09-17T10:08:04.180Z,100726.00
2018-09-17T10:10:50.322Z,100729.00
2018-09-17T10:13:31.165Z,100717.00
2018-09-17T10:16:10.492Z,100711.00
2018-09-17T10:18:49.820Z,100712.00
2018-09-17T10:21:24.660Z,100705.00
2018-09-17T10:23:57.846Z,100711.00
2018-09-17T10:26:37.072Z,100700.00
2018-09-17T10:29:08.645Z,100700.00
2018-09-17T10:31:38.745Z,100695.00
2018-09-17T10:34:10.796Z,100695.00
2018-09-17T10:36:41.596Z,100699.00
2018-09-17T10:39:13.930Z,100700.00
2018-09-17T10:41:44.060Z,100698.00
2018-09-17T10:44:20.643Z,100689.00
2018-09-17T10:46:51.283Z,100685.00
2018-09-17T10:49:23.054Z,100683.00
2018-09-17T10:51:53.524Z,100680.00
2018-09-17T10:54:23.445Z,100681.00
2018-09-17T10:56:53.097Z,100679.00
2018-09-17T10:59:24.613Z,100669.00
2018-09-17T11:02:26.950Z,100668.00
2018-09-17T11:05:21.173Z,100666.00
2018-09-17T11:07:52.149Z,100670.00
2018-09-17T11:10:23.318Z,100663.00
2018-09-17T11:12:53.036Z,100664.00
2018-09-17T11:15:27.043Z,100658.00
2018-09-17T11:17:57.204Z,100658.00
2018-09-17T11:20:26.915Z,100651.00
2018-09-17T11:22:56.715Z,100651.00
2018-09-17T11:25:28.890Z,100637.00
2018-09-17T11:27:59.703Z,100633.00
2018-09-17T11:30:33.035Z,100636.00
2018-09-17T11:33:08.060Z,100637.00
2018-09-17T11:35:37.905Z,100637.00
2018-09-17T11:38:09.102Z,100632.00
2018-09-17T11:40:38.885Z,100635.00
2018-09-17T11:43:09.206Z,100632.00
2018-09-17T11:45:44.047Z,100625.00
2018-09-17T11:48:13.959Z,100629.00
2018-09-17T11:50:47.660Z,100616.00
2018-09-17T11:53:24.067Z,100621.00
2018-09-17T11:55:55.000Z,100619.00
2018-09-17T11:58:25.319Z,100614.00
2018-09-17T12:04:00.659Z,100607.00
2018-09-17T12:06:44.423Z,100608.00
2018-09-17T12:09:16.394Z,100606.00
2018-09-17T12:11:46.889Z,100604.00
2018-09-17T12:14:29.764Z,100607.00
2018-09-17T12:17:01.391Z,100607.00
2018-09-17T12:19:37.887Z,100606.00
2018-09-17T12:22:10.118Z,100603.00
2018-09-17T12:24:43.451Z,100601.00
2018-09-17T12:27:21.008Z,100607.00
2018-09-17T12:29:56.635Z,100601.00
2018-09-17T12:32:27.676Z,100599.00
2018-09-17T12:35:11.765Z,100594.00
2018-09-17T12:37:43.252Z,100597.00
2018-09-17T12:40:15.940Z,100592.00
2018-09-17T12:56:21.716Z,100570.00
2018-09-17T12:59:02.780Z,100570.00
2018-09-17T13:01:36.727Z,100568.00
2018-09-17T13:04:06.576Z,100569.00
2018-09-17T13:06:47.087Z,100563.00
2018-09-17T13:09:18.432Z,100567.00
2018-09-17T13:11:52.603Z,100565.00
2018-09-17T13:14:25.917Z,100563.00
2018-09-17T13:17:03.495Z,100561.00
2018-09-17T13:19:36.366Z,100560.00
2018-09-17T13:22:14.693Z,100563.00
2018-09-17T13:24:54.997Z,100566.00
2018-09-17T13:27:34.600Z,100554.00
2018-09-17T13:30:14.085Z,100557.00
2018-09-17T13:33:11.777Z,100551.00
2018-09-17T13:36:18.738Z,100547.00
2018-09-17T13:38:56.188Z,100548.00
2018-09-17T13:41:53.495Z,100545.00
2018-09-17T13:44:48.100Z,100546.00
2018-09-17T13:50:33.280Z,100548.00
2018-09-17T13:53:12.050Z,100538.00
2018-09-17T13:55:50.709Z,100534.00
2018-09-17T13:58:21.909Z,100528.00
2018-09-17T14:00:56.425Z,100530.00
2018-09-17T14:03:33.553Z,100538.00
2018-09-17T14:06:07.760Z,100530.00
2018-09-17T14:08:37.733Z,100533.00
2018-09-17T14:11:23.213Z,100530.00
2018-09-17T14:13:59.432Z,100526.00
2018-09-17T14:16:36.637Z,100529.00
2018-09-17T14:19:07.614Z,100535.00
2018-09-17T14:21:39.310Z,100527.00
2018-09-17T14:24:10.824Z,100525.00
2018-09-17T14:27:02.893Z,100524.00
2018-09-17T14:29:32.914Z,100518.00
2018-09-17T14:32:10.768Z,100516.00
2018-09-17T14:34:44.348Z,100514.00
2018-09-17T14:37:15.769Z,100514.00
2018-09-17T14:42:25.365Z,100504.00
2018-09-17T14:44:55.817Z,100499.00
2018-09-17T14:47:27.972Z,100497.00
2018-09-17T14:53:13.660Z,100491.00
2018-09-17T14:55:45.503Z,100497.00
2018-09-17T14:58:16.500Z,100492.00
2018-09-17T15:00:46.703Z,100490.00
2018-09-17T15:03:18.126Z,100489.00
2018-09-17T15:05:50.140Z,100492.00
2018-09-17T15:08:20.088Z,100493.00
2018-09-17T15:10:50.334Z,100491.00
2018-09-17T15:13:19.860Z,100492.00
2018-09-17T15:15:54.682Z,100490.00
2018-09-17T15:18:25.727Z,100488.00
2018-09-17T15:21:01.008Z,100491.00
2018-09-17T15:23:33.864Z,100489.00
2018-09-17T15:26:05.739Z,100480.00
2018-09-17T15:28:45.505Z,100480.00
2018-09-17T15:31:28.538Z,100479.00
2018-09-17T15:33:59.299Z,100476.00
2018-09-17T15:36:29.067Z,100480.00
2018-09-17T15:39:02.711Z,100474.00
2018-09-17T15:41:32.959Z,100473.00
2018-09-17T15:44:03.828Z,100468.00
2018-09-17T15:46:35.683Z,100470.00
2018-09-17T15:49:12.296Z,100467.00
2018-09-17T15:51:43.526Z,100466.00
2018-09-17T15:54:18.853Z,100462.00
2018-09-17T15:56:50.550Z,100461.00
2018-09-17T15:59:20.262Z,100455.00
2018-09-17T16:01:51.503Z,100455.00
2018-09-17T16:04:21.773Z,100461.00
2018-09-17T16:06:54.350Z,100462.00
2018-09-17T16:09:31.931Z,100462.00
2018-09-17T16:12:01.817Z,100455.00
2018-09-17T16:14:35.551Z,100454.00
2018-09-17T16:17:05.426Z,100452.00
2018-09-17T16:19:36.216Z,100448.00
2018-09-17T16:22:12.122Z,100450.00
2018-09-17T16:24:46.647Z,100446.00
2018-09-17T16:27:17.047Z,100436.00
2018-09-17T16:29:47.930Z,100434.00
2018-09-17T16:32:23.890Z,100438.00
2018-09-17T16:34:55.955Z,100435.00
2018-09-17T16:37:26.644Z,100440.00
2018-09-17T16:41:20.795Z,100447.00
2018-09-17T16:43:53.165Z,100446.00
2018-09-17T16:46:24.997Z,100446.00
2018-09-17T16:48:55.556Z,100446.00
2018-09-17T16:51:27.162Z,100452.00
2018-09-17T16:53:59.363Z,100447.00
2018-09-17T16:56:33.680Z,100446.00
2018-09-17T16:59:08.996Z,100446.00
2018-09-17T17:01:40.115Z,100449.00
2018-09-17T17:04:16.713Z,100449.00
2018-09-17T17:06:50.627Z,100450.00
2018-09-17T17:09:23.096Z,100449.00
2018-09-17T17:11:54.694Z,100449.00
2018-09-17T17:14:25.486Z,100452.00
2018-09-17T17:16:57.854Z,100451.00
2018-09-17T17:19:28.918Z,100457.00
2018-09-17T17:22:04.105Z,100463.00
2018-09-17T17:24:39.183Z,100459.00
2018-09-17T17:27:15.022Z,100458.00
2018-09-17T17:29:50.345Z,100462.00
2018-09-17T17:32:22.027Z,100463.00
2018-09-17T17:34:51.747Z,100465.00
2018-09-17T17:37:23.284Z,100466.00
2018-09-17T17:39:54.754Z,100463.00
2018-09-17T17:42:25.409Z,100462.00
2018-09-17T17:45:02.139Z,100477.00
2018-09-17T17:47:33.254Z,100470.00
2018-09-17T17:50:04.298Z,100477.00
2018-09-17T17:52:39.162Z,100482.00
2018-09-17T17:55:14.333Z,100489.00
2018-09-17T17:57:46.517Z,100482.00
2018-09-17T18:00:23.560Z,100481.00
2018-09-17T18:02:56.920Z,100482.00
2018-09-17T18:05:28.113Z,100485.00
2018-09-17T18:07:59.907Z,100490.00
2018-09-17T18:10:33.920Z,100486.00
2018-09-17T18:13:07.669Z,100489.00
2018-09-17T18:15:48.502Z,100493.00
2018-09-17T18:18:24.403Z,100492.00
2018-09-17T18:21:00.331Z,100498.00
2018-09-17T18:23:34.740Z,100493.00
2018-09-17T18:26:30.958Z,100489.00
2018-09-17T18:29:15.778Z,100495.00
2018-09-17T18:41:16.749Z,100498.00
2018-09-17T18:47:01.036Z,100492.00
2018-09-17T18:55:48.862Z,100500.00
2018-09-17T19:07:43.840Z,100498.00
2018-09-17T19:10:36.072Z,100498.00
2018-09-17T19:17:02.708Z,100496.00
2018-09-17T19:23:03.884Z,100497.00
2018-09-17T19:25:56.736Z,100492.00
2018-09-17T19:34:48.002Z,100487.00
2018-09-17T19:53:53.522Z,100481.00
2018-09-17T19:56:53.693Z,100481.00
2018-09-17T20:03:02.953Z,100488.00
2018-09-17T20:05:58.006Z,100483.00
2018-09-17T20:08:46.054Z,100486.00
2018-09-17T20:14:46.129Z,100490.00
2018-09-17T20:24:33.993Z,100492.00
2018-09-17T20:27:40.948Z,100486.00
2018-09-17T20:31:29.306Z,100486.00
2018-09-17T20:40:16.214Z,100480.00
2018-09-17T20:42:51.046Z,100474.00
2018-09-17T20:45:21.726Z,100473.00
2018-09-17T20:48:06.520Z,100474.00
2018-09-17T20:50:52.545Z,100475.00
2018-09-17T20:53:22.983Z,100470.00
2018-09-17T20:55:57.593Z,100473.00
2018-09-17T20:58:29.668Z,100465.00
2018-09-17T21:01:05.834Z,100469.00
2018-09-17T21:03:55.850Z,100472.00
2018-09-17T21:06:32.291Z,100475.00
2018-09-17T21:09:02.154Z,100471.00
2018-09-17T21:11:33.350Z,100471.00
2018-09-17T21:14:05.128Z,100470.00
2018-09-17T21:16:34.858Z,100464.00
2018-09-17T21:19:05.828Z,100464.00
2018-09-17T21:21:36.002Z,100470.00
2018-09-17T21:24:07.448Z,100464.00
2018-09-17T21:26:37.055Z,100467.00
2018-09-17T21:29:07.207Z,100462.00
2018-09-17T21:31:36.827Z,100467.00
2018-09-17T21:34:11.529Z,100459.00
2018-09-17T21:36:41.904Z,100460.00
2018-09-17T21:39:13.852Z,100460.00
2018-09-17T21:41:43.614Z,100459.00
2018-09-17T21:44:13.442Z,100459.00
2018-09-17T21:46:43.261Z,100453.00
2018-09-17T21:49:13.082Z,100461.00
2018-09-17T21:51:48.832Z,100453.00
2018-09-17T21:54:20.795Z,100452.00
2018-09-17T21:56:52.650Z,100452.00
2018-09-17T21:59:24.479Z,100451.00
2018-09-17T22:01:54.293Z,100448.00
2018-09-17T22:04:24.783Z,100448.00
2018-09-17T22:06:54.903Z,100446.00
2018-09-17T22:09:24.545Z,100447.00
2018-09-17T22:11:55.309Z,100446.00
2018-09-17T22:14:37.235Z,100450.00
2018-09-17T22:17:08.118Z,100447.00
2018-09-17T22:19:44.428Z,100447.00
2018-09-17T22:22:13.877Z,100446.00
2018-09-17T22:24:43.908Z,100446.00
2018-09-17T22:27:13.357Z,100444.00
2018-09-17T22:29:43.379Z,100447.00
2018-09-17T22:32:12.755Z,100445.00
2018-09-17T22:34:42.291Z,100445.00
2018-09-17T22:37:11.805Z,100444.00
2018-09-17T22:39:41.332Z,100445.00
2018-09-17T22:42:11.097Z,100445.00
2018-09-17T22:44:40.565Z,100442.00
2018-09-17T22:47:10.871Z,100440.00
2018-09-17T22:49:41.063Z,100445.00
2018-09-17T22:52:11.266Z,100439.00
2018-09-17T22:54:41.300Z,100443.00
2018-09-17T22:57:10.961Z,100446.00
2018-09-17T22:59:41.771Z,100449.00
2018-09-17T23:02:11.358Z,100439.00
2018-09-17T23:04:40.736Z,100439.00
2018-09-17T23:07:10.202Z,100445.00
2018-09-17T23:09:39.613Z,100440.00
2018-09-17T23:12:09.343Z,100438.00
2018-09-17T23:14:39.085Z,100442.00
2018-09-17T23:17:10.440Z,100438.00
2018-09-17T23:19:40.660Z,100440.00
2018-09-17T23:22:10.940Z,100437.00
2018-09-17T23:24:40.594Z,100437.00
2018-09-17T23:27:11.273Z,100437.00
2018-09-17T23:29:40.922Z,100434.00
2018-09-17T23:32:11.730Z,100432.00
2018-09-17T23:34:41.681Z,100433.00
2018-09-17T23:37:11.689Z,100433.00
2018-09-17T23:39:41.241Z,100432.00
2018-09-17T23:42:10.989Z,100427.00
2018-09-17T23:44:43.069Z,100429.00
2018-09-17T23:47:12.733Z,100425.00
2018-09-17T23:49:44.685Z,100420.00
2018-09-17T23:52:14.556Z,100423.00
2018-09-17T23:54:45.108Z,100420.00
2018-09-17T23:57:15.019Z,100419.00
2018-09-17T23:59:44.772Z,100421.00
